Dream Angel — 3EEV — position and weather

sailwx.info

Track history (hours):
 
Tides and Currents Weather Stations Pressure Air Temp Water Temp Dewpoint Dewpoint Depression Visibility Wind Speed Wind Dir Waves Ship Positions

Dream Angel

Last reported at 2014-Jul-30 04:33 UTC. Time now 2014-Jul-30 05:11 UTC.
Position N 35°25' E 139°41'.

Length 187 m; draft 7.1 m.

Type: Ship. MMSI: 371820000.

Date/timePositionNaut miles runAvg speedWind from/ knotsBaromVisibWave heightAir tempDewpointWater temp
2014-Jul-30 04:33N 35°25' E 139°41'0 0.2
2014-Jul-30 03:33N 35°25' E 139°41'5 5.4
2014-Jul-30 02:33N 35°20' E 139°43'10 9.6
2014-Jul-30 01:33N 35°11' E 139°47'7 7.2
2014-Jul-30 00:33N 35°04' E 139°44'8 8.1
2014-Jul-29 23:33N 34°57' E 139°41'9 8.9
2014-Jul-29 22:33N 34°48' E 139°40'4 4.1
2014-Jul-29 21:33N 34°43' E 139°40'10 9.7
2014-Jul-29 20:29N 34°38' E 139°29'1613.2
2014-Jul-29 19:16N 34°32' E 139°11'4114.9
2014-Jul-29 16:30N 34°25' E 138°21'1514.9
2014-Jul-29 15:29N 34°25' E 138°03'157 5.5
2014-Jul-28 11:08N 33°49' E 134°58'915.4
2014-Jul-28 10:34N 33°58' E 134°58'1515.0
2014-Jul-28 09:33N 34°13' E 134°58'1211.8
2014-Jul-28 08:33N 34°24' E 135°03'1615.9
2014-Jul-28 07:33N 34°34' E 135°18'6 5.0
2014-Jul-28 06:24N 34°37' E 135°24'0 0.0
2014-Jul-28 05:24N 34°37' E 135°24'0 0.0
2014-Jul-28 04:30N 34°37' E 135°24'0 0.0
2014-Jul-28 03:30N 34°37' E 135°24'0 0.0
2014-Jul-28 02:30N 34°37' E 135°24'0 0.0
2014-Jul-28 01:30N 34°37' E 135°24'0 0.0
2014-Jul-28 00:30N 34°37' E 135°24'4 4.5
2014-Jul-27 23:33N 34°35' E 135°19'1414.4
2014-Jul-27 22:33N 34°26' E 135°06'1514.8
2014-Jul-27 21:33N 34°12' E 134°59'10 9.6
2014-Jul-27 20:33N 34°03' E 134°58'  
Track history (hours):
 
Tides and Currents Weather Stations Pressure Air Temp Water Temp Dewpoint Dewpoint Depression Visibility Wind Speed Wind Dir Waves Ship Positions

Dream Angel

Last reported at 2014-Jul-30 04:33 UTC. Time now 2014-Jul-30 05:11 UTC.
Position N 35°25' E 139°41'.

Length 187 m; draft 7.1 m.

Type: Ship. MMSI: 371820000.

Date/timePositionNaut miles runAvg speedWind from/ knotsBaromVisibWave heightAir tempDewpointWater temp
2014-Jul-30 04:33N 35°25' E 139°41'0 0.2
2014-Jul-30 03:33N 35°25' E 139°41'5 5.4
2014-Jul-30 02:33N 35°20' E 139°43'10 9.6
2014-Jul-30 01:33N 35°11' E 139°47'7 7.2
2014-Jul-30 00:33N 35°04' E 139°44'8 8.1
2014-Jul-29 23:33N 34°57' E 139°41'9 8.9
2014-Jul-29 22:33N 34°48' E 139°40'4 4.1
2014-Jul-29 21:33N 34°43' E 139°40'10 9.7
2014-Jul-29 20:29N 34°38' E 139°29'1613.2
2014-Jul-29 19:16N 34°32' E 139°11'4114.9
2014-Jul-29 16:30N 34°25' E 138°21'1514.9
2014-Jul-29 15:29N 34°25' E 138°03'157 5.5
2014-Jul-28 11:08N 33°49' E 134°58'915.4
2014-Jul-28 10:34N 33°58' E 134°58'1515.0
2014-Jul-28 09:33N 34°13' E 134°58'1211.8
2014-Jul-28 08:33N 34°24' E 135°03'1615.9
2014-Jul-28 07:33N 34°34' E 135°18'6 5.0
2014-Jul-28 06:24N 34°37' E 135°24'0 0.0
2014-Jul-28 05:24N 34°37' E 135°24'0 0.0
2014-Jul-28 04:30N 34°37' E 135°24'0 0.0
2014-Jul-28 03:30N 34°37' E 135°24'0 0.0
2014-Jul-28 02:30N 34°37' E 135°24'0 0.0
2014-Jul-28 01:30N 34°37' E 135°24'0 0.0
2014-Jul-28 00:30N 34°37' E 135°24'4 4.5
2014-Jul-27 23:33N 34°35' E 135°19'1414.4
2014-Jul-27 22:33N 34°26' E 135°06'1514.8
2014-Jul-27 21:33N 34°12' E 134°59'10 9.6
2014-Jul-27 20:33N 34°03' E 134°58'  

Dump ship's entire track history